createdAt,value
2022-11-06T00:02:23.206Z,3.40
2022-11-06T00:05:45.921Z,4.45
2022-11-06T00:08:48.553Z,5.43
2022-11-06T00:11:52.824Z,3.22
2022-11-06T00:14:55.267Z,5.22
2022-11-06T00:17:57.627Z,3.35
2022-11-06T00:21:00.269Z,5.68
2022-11-06T00:24:04.841Z,4.00
2022-11-06T00:27:07.206Z,5.88
2022-11-06T00:30:14.032Z,2.53
2022-11-06T00:33:16.384Z,3.15
2022-11-06T00:36:21.098Z,3.72
2022-11-06T00:39:23.726Z,3.37
2022-11-06T00:42:26.123Z,3.60
2022-11-06T00:45:28.509Z,4.30
2022-11-06T00:48:30.918Z,4.78
2022-11-06T00:51:35.862Z,3.30
2022-11-06T00:54:38.230Z,5.03
2022-11-06T00:57:40.562Z,3.55
2022-11-06T01:00:42.994Z,2.67
2022-11-06T01:03:47.885Z,3.10
2022-11-06T01:06:53.118Z,2.67
2022-11-06T01:09:55.698Z,3.80
2022-11-06T01:12:58.045Z,3.60
2022-11-06T01:16:00.605Z,3.30
2022-11-06T01:19:03.942Z,2.90
2022-11-06T01:22:06.345Z,3.65
2022-11-06T01:25:09.023Z,4.13
2022-11-06T01:28:11.616Z,3.40
2022-11-06T01:31:17.658Z,4.40
2022-11-06T01:34:19.991Z,3.72
2022-11-06T01:37:22.519Z,3.90
2022-11-06T01:40:25.059Z,3.43
2022-11-06T01:43:56.406Z,3.88
2022-11-06T01:46:59.334Z,2.47
2022-11-06T01:50:06.809Z,2.85
2022-11-06T01:53:09.280Z,2.90
2022-11-06T01:56:12.470Z,5.10
2022-11-06T01:59:17.018Z,3.45
2022-11-06T02:02:19.920Z,3.67
2022-11-06T02:05:23.046Z,3.78
2022-11-06T02:08:25.523Z,3.70
2022-11-06T02:11:28.276Z,4.63
2022-11-06T02:14:43.040Z,3.55
2022-11-06T02:18:30.478Z,3.60
2022-11-06T02:21:58.818Z,3.38
2022-11-06T02:25:16.178Z,2.97
2022-11-06T02:28:43.019Z,3.10
2022-11-06T02:31:45.896Z,3.08
2022-11-06T02:34:49.615Z,3.90
2022-11-06T02:37:58.142Z,2.40
2022-11-06T02:41:05.210Z,2.83
2022-11-06T02:44:10.055Z,2.67
2022-11-06T02:47:13.599Z,2.65
2022-11-06T02:50:26.112Z,2.55
2022-11-06T02:53:30.818Z,2.42
2022-11-06T02:56:36.839Z,3.72
2022-11-06T02:59:50.499Z,3.10
2022-11-06T03:03:02.044Z,3.13
2022-11-06T03:06:08.047Z,3.38
2022-11-06T03:09:20.377Z,2.25
2022-11-06T03:12:29.747Z,2.42
2022-11-06T03:16:18.704Z,6.20
2022-11-06T03:19:27.645Z,2.47
2022-11-06T03:22:35.940Z,3.63
2022-11-06T03:25:45.227Z,1.85
2022-11-06T03:29:06.044Z,4.18
2022-11-06T03:32:15.568Z,2.07
2022-11-06T03:35:39.106Z,2.38
2022-11-06T03:38:45.047Z,2.50
2022-11-06T03:42:03.206Z,2.15
2022-11-06T03:45:25.853Z,2.50
2022-11-06T03:48:43.977Z,2.63
2022-11-06T03:51:56.926Z,1.85
2022-11-06T03:55:23.472Z,2.85
2022-11-06T03:58:30.366Z,2.95
2022-11-06T04:01:36.421Z,2.38
2022-11-06T04:04:48.235Z,3.23
2022-11-06T04:08:13.395Z,2.72
2022-11-06T04:11:37.306Z,4.38
2022-11-06T04:14:42.605Z,3.95
2022-11-06T04:17:45.073Z,3.88
2022-11-06T04:21:21.605Z,4.37
2022-11-06T04:25:03.540Z,2.53
2022-11-06T04:28:46.855Z,3.80
2022-11-06T04:32:08.072Z,4.53
2022-11-06T04:35:18.097Z,4.15
2022-11-06T04:38:37.354Z,2.93
2022-11-06T04:41:50.267Z,2.85
2022-11-06T04:44:58.246Z,4.05
2022-11-06T04:48:01.049Z,3.53
2022-11-06T04:51:06.556Z,4.47
2022-11-06T04:54:10.244Z,2.83
2022-11-06T04:57:12.764Z,4.65
2022-11-06T05:00:15.925Z,5.18
2022-11-06T05:03:18.882Z,4.40
2022-11-06T05:06:23.540Z,3.55
2022-11-06T05:09:29.724Z,4.70
2022-11-06T05:12:32.063Z,2.58
2022-11-06T05:15:34.490Z,4.70
2022-11-06T05:18:36.847Z,3.30
2022-11-06T05:21:57.462Z,4.10
2022-11-06T05:24:59.878Z,3.77
2022-11-06T05:28:05.795Z,4.03
2022-11-06T05:31:08.138Z,6.18
2022-11-06T05:34:10.680Z,7.65
2022-11-06T05:37:13.037Z,28.52
2022-11-06T05:40:17.218Z,28.23
2022-11-06T05:43:19.578Z,17.30
2022-11-06T05:46:47.013Z,14.48
2022-11-06T05:49:44.407Z,8.57
2022-11-06T05:52:46.783Z,4.65
2022-11-06T05:55:49.115Z,5.30
2022-11-06T05:58:51.584Z,5.88
2022-11-06T06:01:54.024Z,5.30
2022-11-06T06:04:56.509Z,6.32
2022-11-06T06:07:58.948Z,4.80
2022-11-06T06:11:06.504Z,4.00
2022-11-06T06:14:08.879Z,4.10
2022-11-06T06:17:11.218Z,4.38
2022-11-06T06:20:19.314Z,4.80
2022-11-06T06:23:21.709Z,4.03
2022-11-06T06:26:24.154Z,4.10
2022-11-06T06:29:26.472Z,4.03
2022-11-06T06:32:28.852Z,4.68
2022-11-06T06:35:31.275Z,4.15
2022-11-06T06:38:33.833Z,5.22
2022-11-06T06:41:36.679Z,3.53
2022-11-06T06:44:39.314Z,4.05
2022-11-06T06:47:41.901Z,4.18
2022-11-06T06:50:44.356Z,3.65
2022-11-06T06:53:46.680Z,4.20
2022-11-06T06:56:49.040Z,3.83
2022-11-06T06:59:51.439Z,4.13
2022-11-06T07:02:54.117Z,4.35
2022-11-06T07:05:59.389Z,5.57
2022-11-06T07:09:01.797Z,8.73
2022-11-06T07:12:04.470Z,10.77
2022-11-06T07:15:07.734Z,6.57
2022-11-06T07:18:10.229Z,6.18
2022-11-06T07:21:13.053Z,7.15
2022-11-06T07:24:18.072Z,4.90
2022-11-06T07:27:20.413Z,6.70
2022-11-06T07:30:25.886Z,5.07
2022-11-06T07:33:28.306Z,5.38
2022-11-06T07:36:32.762Z,5.05
2022-11-06T07:39:35.183Z,5.43
2022-11-06T07:42:43.127Z,6.77
2022-11-06T07:45:49.958Z,4.40
2022-11-06T07:48:52.510Z,4.13
2022-11-06T07:51:55.374Z,6.60
2022-11-06T07:54:57.736Z,4.15
2022-11-06T07:58:00.121Z,4.97
2022-11-06T08:01:03.225Z,4.63
2022-11-06T08:04:05.673Z,5.93
2022-11-06T08:07:08.021Z,5.68
2022-11-06T08:10:10.624Z,5.30
2022-11-06T08:13:16.583Z,5.50
2022-11-06T08:16:18.941Z,4.82
2022-11-06T08:19:21.771Z,4.45
2022-11-06T08:22:24.163Z,4.25
2022-11-06T08:25:27.207Z,4.13
2022-11-06T08:28:29.736Z,4.13
2022-11-06T08:31:32.128Z,4.95
2022-11-06T08:34:35.959Z,3.95
2022-11-06T08:37:38.354Z,3.22
2022-11-06T08:40:41.132Z,4.28
2022-11-06T08:43:43.484Z,2.67
2022-11-06T08:46:51.904Z,4.45
2022-11-06T08:49:56.065Z,3.78
2022-11-06T08:53:04.083Z,2.53
2022-11-06T08:56:06.781Z,2.28
2022-11-06T08:59:09.225Z,4.03
2022-11-06T09:02:12.997Z,5.15
2022-11-06T09:05:15.645Z,5.20
2022-11-06T09:08:18.064Z,3.33
2022-11-06T09:11:20.408Z,8.18
2022-11-06T09:14:22.786Z,16.53
2022-11-06T09:17:25.216Z,7.80
2022-11-06T09:20:27.677Z,3.05
2022-11-06T09:23:30.086Z,2.92
2022-11-06T09:26:32.521Z,3.33
2022-11-06T09:29:34.899Z,3.43
2022-11-06T09:32:37.426Z,3.63
2022-11-06T09:35:39.986Z,2.40
2022-11-06T09:38:42.417Z,3.20
2022-11-06T09:42:08.172Z,3.28
2022-11-06T09:45:17.746Z,4.30
2022-11-06T09:48:34.972Z,2.25
2022-11-06T09:52:10.939Z,3.40
2022-11-06T09:55:20.616Z,4.28
2022-11-06T09:58:43.778Z,3.33
2022-11-06T10:01:49.653Z,3.87
2022-11-06T10:05:05.879Z,2.60
2022-11-06T10:08:22.156Z,5.78
2022-11-06T10:11:35.125Z,6.68
2022-11-06T10:14:49.806Z,4.38
2022-11-06T10:18:03.867Z,3.90
2022-11-06T10:21:22.997Z,4.40
2022-11-06T10:24:45.139Z,4.15
2022-11-06T10:28:26.285Z,2.70
2022-11-06T10:31:44.176Z,4.47
2022-11-06T10:35:15.848Z,3.63
2022-11-06T10:38:39.208Z,3.35
2022-11-06T10:41:44.001Z,3.75
2022-11-06T10:44:49.275Z,3.47
2022-11-06T10:47:55.530Z,2.85
2022-11-06T10:51:12.754Z,2.33
2022-11-06T10:54:15.155Z,1.88
2022-11-06T10:57:43.452Z,2.72
2022-11-06T11:00:46.064Z,3.08
2022-11-06T11:03:49.569Z,2.50
2022-11-06T11:06:51.925Z,3.87
2022-11-06T11:09:54.455Z,3.63
2022-11-06T11:13:00.769Z,2.80
2022-11-06T11:16:05.692Z,2.80
2022-11-06T11:19:33.360Z,2.35
2022-11-06T11:22:35.965Z,2.13
2022-11-06T11:25:38.504Z,4.63
2022-11-06T11:28:41.107Z,4.00
2022-11-06T11:31:47.006Z,3.38
2022-11-06T11:34:56.432Z,3.28
2022-11-06T11:38:14.123Z,3.10
2022-11-06T11:41:19.795Z,2.42
2022-11-06T11:44:22.289Z,2.70
2022-11-06T11:47:24.797Z,2.38
2022-11-06T11:50:32.150Z,2.78
2022-11-06T11:53:34.527Z,2.30
2022-11-06T11:57:06.354Z,2.70
2022-11-06T12:00:20.107Z,2.20
2022-11-06T12:03:36.486Z,2.47
2022-11-06T12:07:01.802Z,2.35
2022-11-06T12:10:32.915Z,3.30
2022-11-06T12:13:35.502Z,2.67
2022-11-06T12:16:37.952Z,2.85
2022-11-06T12:19:43.939Z,2.15
2022-11-06T12:22:47.839Z,5.07
2022-11-06T12:26:00.014Z,2.40
2022-11-06T12:29:15.352Z,3.75
2022-11-06T12:32:20.930Z,2.67
2022-11-06T12:35:38.273Z,2.60
2022-11-06T12:39:10.984Z,2.80
2022-11-06T12:42:13.696Z,2.27
2022-11-06T12:45:16.566Z,5.47
2022-11-06T12:48:37.424Z,3.83
2022-11-06T12:51:53.521Z,3.42
2022-11-06T12:55:16.101Z,25.33
2022-11-06T12:58:28.268Z,6.70
2022-11-06T13:01:42.813Z,10.32
2022-11-06T13:05:27.070Z,29.38
2022-11-06T13:08:39.069Z,18.17
2022-11-06T13:12:11.952Z,19.85
2022-11-06T13:15:32.339Z,12.47
2022-11-06T13:18:36.633Z,18.38
2022-11-06T13:22:01.497Z,28.48
2022-11-06T13:25:22.617Z,20.33
2022-11-06T13:28:43.876Z,21.33
2022-11-06T13:32:14.616Z,60.93
2022-11-06T13:35:18.846Z,9.43
2022-11-06T13:38:28.847Z,18.90
2022-11-06T13:41:32.315Z,11.75
2022-11-06T13:44:35.440Z,13.85
2022-11-06T13:47:52.143Z,10.53
2022-11-06T13:51:08.038Z,11.82
2022-11-06T13:54:27.232Z,5.05
2022-11-06T13:58:11.215Z,5.18
2022-11-06T14:01:29.471Z,10.55
2022-11-06T14:04:40.927Z,9.50
2022-11-06T14:07:43.903Z,5.88
2022-11-06T14:11:12.876Z,6.22
2022-11-06T14:14:21.558Z,10.55
2022-11-06T14:17:24.776Z,26.45
2022-11-06T14:20:28.914Z,30.60
2022-11-06T14:23:31.234Z,14.02
2022-11-06T14:26:47.448Z,10.43
2022-11-06T14:29:59.954Z,10.70
2022-11-06T14:33:02.358Z,6.35
2022-11-06T14:36:34.158Z,7.43
2022-11-06T14:39:55.882Z,8.55
2022-11-06T14:42:58.434Z,7.90
2022-11-06T14:46:06.606Z,8.70
2022-11-06T14:49:42.057Z,9.45
2022-11-06T14:52:51.852Z,13.07
2022-11-06T14:56:05.955Z,11.20
2022-11-06T14:59:33.247Z,8.43
2022-11-06T15:02:37.386Z,10.38
2022-11-06T15:05:42.587Z,9.73
2022-11-06T15:08:45.279Z,10.40
2022-11-06T15:12:00.786Z,15.82
2022-11-06T15:15:09.369Z,34.72
2022-11-06T15:18:15.117Z,57.05
2022-11-06T15:21:30.615Z,28.98
2022-11-06T15:24:41.003Z,56.27
2022-11-06T15:27:47.885Z,31.15
2022-11-06T15:31:05.832Z,18.70
2022-11-06T15:34:29.257Z,15.25
2022-11-06T15:37:36.001Z,13.20
2022-11-06T15:40:39.553Z,8.83
2022-11-06T15:43:44.713Z,7.25
2022-11-06T15:46:58.251Z,12.63
2022-11-06T15:50:18.422Z,28.15
2022-11-06T15:53:23.120Z,37.42
2022-11-06T15:56:31.550Z,43.70
2022-11-06T15:59:34.135Z,29.83
2022-11-06T16:02:59.353Z,29.85
2022-11-06T16:06:03.132Z,28.95
2022-11-06T16:09:09.175Z,23.42
2022-11-06T16:12:13.332Z,13.87
2022-11-06T16:15:47.311Z,12.75
2022-11-06T16:18:49.855Z,10.10
2022-11-06T16:22:01.179Z,6.97
2022-11-06T16:25:06.138Z,8.68
2022-11-06T16:28:20.291Z,10.27
2022-11-06T16:31:24.916Z,10.00
2022-11-06T16:34:39.876Z,12.88
2022-11-06T16:37:42.940Z,28.13
2022-11-06T16:40:50.324Z,29.77
2022-11-06T16:44:39.022Z,18.53
2022-11-06T16:47:41.491Z,27.75
2022-11-06T16:50:53.274Z,55.95
2022-11-06T16:53:56.561Z,37.42
2022-11-06T16:57:12.746Z,58.17
2022-11-06T17:00:21.390Z,57.67
2022-11-06T17:03:24.250Z,43.47
2022-11-06T17:06:35.506Z,44.90
2022-11-06T17:09:38.602Z,36.13
2022-11-06T17:12:41.244Z,30.27
2022-11-06T17:15:47.252Z,24.10
2022-11-06T17:18:50.631Z,25.30
2022-11-06T17:21:53.279Z,22.23
2022-11-06T17:24:56.114Z,23.23
2022-11-06T17:27:58.914Z,20.23
2022-11-06T17:31:01.299Z,26.03
2022-11-06T17:34:04.091Z,35.10
2022-11-06T17:37:06.757Z,27.67
2022-11-06T17:40:10.119Z,16.73
2022-11-06T17:43:12.887Z,15.40
2022-11-06T17:46:16.969Z,22.20
2022-11-06T17:49:19.624Z,16.75
2022-11-06T17:52:22.211Z,10.85
2022-11-06T17:55:24.946Z,11.93
2022-11-06T17:58:27.582Z,13.50
2022-11-06T18:01:30.318Z,9.53
2022-11-06T18:04:34.426Z,18.98
2022-11-06T18:07:37.158Z,17.60
2022-11-06T18:10:40.595Z,18.10
2022-11-06T18:13:45.323Z,17.08
2022-11-06T18:16:48.453Z,26.70
2022-11-06T18:19:51.827Z,23.48
2022-11-06T18:22:54.466Z,20.70
2022-11-06T18:25:57.748Z,21.45
2022-11-06T18:29:00.351Z,18.23
2022-11-06T18:32:03.118Z,18.17
2022-11-06T18:35:06.502Z,20.55
2022-11-06T18:38:09.959Z,22.80
2022-11-06T18:41:18.831Z,19.88
2022-11-06T18:44:21.284Z,34.38
2022-11-06T18:47:24.486Z,81.87
2022-11-06T18:50:28.159Z,39.33
2022-11-06T18:53:31.615Z,41.15
2022-11-06T18:56:36.251Z,53.05
2022-11-06T18:59:39.233Z,47.58
2022-11-06T19:02:42.172Z,46.60
2022-11-06T19:05:49.228Z,48.70
2022-11-06T19:08:51.865Z,42.60
2022-11-06T19:11:54.706Z,61.10
2022-11-06T19:14:57.396Z,55.80
2022-11-06T19:18:01.045Z,45.30
2022-11-06T19:21:05.642Z,38.60
2022-11-06T19:24:08.367Z,28.42
2022-11-06T19:27:11.023Z,32.30
2022-11-06T19:30:14.485Z,38.10
2022-11-06T19:33:17.199Z,30.53
2022-11-06T19:36:21.886Z,33.42
2022-11-06T19:39:24.846Z,30.33
2022-11-06T19:42:27.483Z,34.22
2022-11-06T19:45:30.164Z,48.55
2022-11-06T19:48:32.989Z,60.57
2022-11-06T19:51:37.577Z,58.97
2022-11-06T19:54:40.490Z,26.25
2022-11-06T19:57:43.187Z,33.58
2022-11-06T20:00:47.991Z,15.52
2022-11-06T20:03:50.646Z,28.87
2022-11-06T20:06:53.646Z,24.50
2022-11-06T20:10:02.019Z,23.25
2022-11-06T20:13:05.198Z,24.38
2022-11-06T20:16:16.722Z,57.28
2022-11-06T20:19:19.415Z,58.77
2022-11-06T20:22:22.112Z,54.53
2022-11-06T20:25:24.731Z,57.78
2022-11-06T20:28:28.861Z,58.95
2022-11-06T20:31:32.077Z,58.60
2022-11-06T20:34:34.963Z,67.93
2022-11-06T20:37:37.693Z,39.35
2022-11-06T20:40:41.456Z,46.78
2022-11-06T20:43:44.346Z,39.17
2022-11-06T20:46:47.960Z,35.88
2022-11-06T20:49:52.673Z,38.97
2022-11-06T20:52:55.004Z,43.28
2022-11-06T20:56:03.046Z,53.33
2022-11-06T20:59:07.059Z,43.72
2022-11-06T21:02:11.309Z,185.80
2022-11-06T21:05:17.069Z,57.43
2022-11-06T21:08:19.707Z,29.95
2022-11-06T21:11:27.369Z,28.27
2022-11-06T21:14:30.242Z,32.03
2022-11-06T21:17:33.017Z,55.58
2022-11-06T21:20:37.799Z,42.77
2022-11-06T21:23:40.982Z,41.33
2022-11-06T21:26:43.650Z,31.75
2022-11-06T21:29:46.095Z,23.58
2022-11-06T21:32:48.779Z,21.55
2022-11-06T21:35:51.551Z,15.07
2022-11-06T21:38:55.143Z,17.83
2022-11-06T21:41:57.682Z,17.75
2022-11-06T21:45:00.083Z,20.85
2022-11-06T21:48:05.588Z,22.45
2022-11-06T21:51:21.663Z,21.17
2022-11-06T21:54:42.705Z,21.42
2022-11-06T21:57:45.069Z,24.45
2022-11-06T22:00:48.235Z,24.00
2022-11-06T22:03:51.584Z,20.55
2022-11-06T22:06:53.952Z,21.27
2022-11-06T22:09:56.460Z,20.08
2022-11-06T22:12:58.827Z,26.77
2022-11-06T22:16:01.583Z,24.98
2022-11-06T22:19:06.776Z,23.02
2022-11-06T22:22:09.257Z,27.27
2022-11-06T22:25:12.123Z,28.23
2022-11-06T22:28:14.550Z,30.42
2022-11-06T22:31:16.906Z,35.92
2022-11-06T22:34:19.467Z,38.28
2022-11-06T22:37:21.895Z,35.33
2022-11-06T22:40:24.297Z,27.60
2022-11-06T22:43:27.252Z,27.08
2022-11-06T22:46:30.225Z,33.90
2022-11-06T22:49:33.428Z,33.15
2022-11-06T22:52:35.790Z,35.57
2022-11-06T22:55:38.268Z,31.42
2022-11-06T22:58:41.019Z,49.67
2022-11-06T23:01:43.812Z,44.55
2022-11-06T23:04:46.244Z,44.40
2022-11-06T23:07:48.669Z,27.10
2022-11-06T23:10:51.061Z,30.15
2022-11-06T23:13:54.376Z,29.45
2022-11-06T23:17:04.266Z,27.83
2022-11-06T23:20:07.628Z,30.73
2022-11-06T23:23:10.039Z,25.80
2022-11-06T23:26:16.407Z,24.90
2022-11-06T23:29:18.794Z,23.83
2022-11-06T23:32:21.599Z,23.88
2022-11-06T23:35:28.054Z,21.98
2022-11-06T23:38:34.596Z,21.47
2022-11-06T23:41:46.336Z,19.25
2022-11-06T23:45:07.735Z,22.70
2022-11-06T23:48:13.944Z,18.20
2022-11-06T23:51:16.776Z,20.25
2022-11-06T23:54:19.173Z,17.60
2022-11-06T23:57:21.690Z,16.83
